Time;durP1;ratioP1;P1;durP2;ratioP2;P2;SDS_P1;SDS_P2;PMS_P1;PMS_P2;Temp;Humidity;BMP_temperature;BMP_pressure;BME280_temperature;BME280_humidity;BME280_pressure;Samples;Min_cycle;Max_cycle;Signal;HPM_P1;HPM_P2
2021/04/20 00:00:22;;;;;;;31.38;23.73;;;10.70;93.80;;;;;;4999685;28;20474;-36
2021/04/20 00:02:47;;;;;;;30.70;23.90;;;10.60;93.80;;;;;;4996478;28;20057;-38
2021/04/20 00:05:16;;;;;;;33.00;23.88;;;10.70;93.80;;;;;;4987614;28;20076;-37
2021/04/20 00:07:41;;;;;;;28.45;21.95;;;10.60;93.80;;;;;;4997618;28;20025;-38
2021/04/20 00:10:13;;;;;;;29.45;22.63;;;10.60;93.80;;;;;;4986760;28;20034;-38
2021/04/20 00:12:39;;;;;;;28.63;21.92;;;10.60;93.90;;;;;;4997611;28;20583;-38
2021/04/20 00:15:09;;;;;;;25.52;20.45;;;10.60;93.90;;;;;;4985995;28;20121;-33
2021/04/20 00:17:38;;;;;;;27.17;21.38;;;10.50;93.90;;;;;;4999393;28;20022;-37
2021/04/20 00:20:07;;;;;;;27.85;20.58;;;10.50;94.00;;;;;;4994521;28;20049;-37
2021/04/20 00:22:33;;;;;;;29.13;22.75;;;10.50;94.10;;;;;;4992612;28;20509;-37
2021/04/20 00:24:58;;;;;;;27.23;21.10;;;10.40;94.10;;;;;;5005253;28;20113;-37
2021/04/20 00:27:24;;;;;;;27.30;21.52;;;10.50;94.10;;;;;;4994174;28;20104;-38
2021/04/20 00:29:49;;;;;;;30.02;21.80;;;10.40;94.10;;;;;;5004765;28;20022;-38
2021/04/20 00:32:15;;;;;;;28.48;22.35;;;10.40;94.20;;;;;;5001659;28;20385;-35
2021/04/20 00:34:43;;;;;;;30.75;23.67;;;10.40;94.20;;;;;;4989175;28;20490;-39
2021/04/20 00:37:09;;;;;;;34.05;24.80;;;10.40;94.30;;;;;;4995836;28;20025;-38
2021/04/20 00:39:35;;;;;;;32.58;23.92;;;10.40;94.30;;;;;;4991099;28;20473;-37
2021/04/20 00:42:02;;;;;;;34.55;25.55;;;10.40;94.30;;;;;;4994000;28;20501;-35
2021/04/20 00:44:28;;;;;;;32.53;23.85;;;10.40;94.30;;;;;;4993455;28;20019;-36
2021/04/20 00:46:53;;;;;;;32.67;25.23;;;10.40;94.30;;;;;;4987339;28;20113;-35
2021/04/20 00:49:22;;;;;;;31.25;24.08;;;10.40;94.30;;;;;;4996451;28;20034;-35
2021/04/20 00:51:49;;;;;;;35.58;25.88;;;10.30;94.30;;;;;;4986427;28;20448;-37
2021/04/20 00:54:15;;;;;;;33.88;26.42;;;10.30;94.30;;;;;;4996851;28;20173;-37
2021/04/20 00:56:40;;;;;;;35.30;25.77;;;10.30;94.30;;;;;;4996110;28;20022;-36
2021/04/20 00:59:06;;;;;;;33.38;25.55;;;10.30;94.40;;;;;;4993779;28;20492;-39
2021/04/20 01:01:33;;;;;;;36.90;27.02;;;10.30;94.40;;;;;;4984222;28;620356;-38
2021/04/20 01:03:58;;;;;;;34.05;25.83;;;10.30;94.50;;;;;;4993513;28;20475;-36
2021/04/20 01:06:24;;;;;;;34.08;25.63;;;10.30;94.50;;;;;;5005844;28;20029;-36
2021/04/20 01:08:50;;;;;;;32.45;25.13;;;10.20;94.50;;;;;;4993812;28;20026;-38
2021/04/20 01:11:16;;;;;;;31.90;24.40;;;10.20;94.50;;;;;;5006088;28;20430;-38
2021/04/20 01:13:41;;;;;;;30.42;23.00;;;10.20;94.50;;;;;;4999662;28;20037;-37
2021/04/20 01:16:07;;;;;;;30.48;22.88;;;10.10;94.50;;;;;;5005187;28;20088;-38
2021/04/20 01:18:38;;;;;;;32.05;23.38;;;10.10;94.60;;;;;;5001990;28;20497;-34
2021/04/20 01:21:11;;;;;;;29.45;22.65;;;10.00;94.70;;;;;;4971704;28;20038;-35
2021/04/20 01:23:46;;;;;;;;;;;10.00;94.70;;;;;;5001761;28;20042;-36
2021/04/20 01:26:13;;;;;;;30.92;23.23;;;9.90;94.70;;;;;;4991203;28;20286;-35
2021/04/20 01:28:39;;;;;;;32.60;24.30;;;9.90;94.80;;;;;;4990839;28;20041;-36
2021/04/20 01:31:05;;;;;;;37.63;25.50;;;9.80;94.90;;;;;;4993501;28;20126;-34
2021/04/20 01:33:31;;;;;;;34.55;24.10;;;9.80;94.90;;;;;;4988999;28;20014;-37
2021/04/20 01:35:57;;;;;;;37.22;25.60;;;9.80;95.00;;;;;;4994953;28;20026;-39
2021/04/20 01:38:23;;;;;;;33.95;24.75;;;9.80;95.00;;;;;;4987576;28;20025;-38
2021/04/20 01:40:49;;;;;;;33.33;24.20;;;9.80;95.00;;;;;;4996773;28;20038;-36
2021/04/20 01:43:15;;;;;;;33.95;24.48;;;9.80;94.90;;;;;;4987084;28;20022;-38
2021/04/20 01:45:42;;;;;;;31.70;23.65;;;9.70;95.00;;;;;;4997106;28;20486;-36
2021/04/20 01:48:09;;;;;;;30.85;23.23;;;9.70;95.00;;;;;;4985751;28;20374;-37
2021/04/20 01:50:34;;;;;;;32.92;22.80;;;9.70;95.10;;;;;;4997550;28;20050;-38
2021/04/20 01:53:00;;;;;;;31.13;22.80;;;9.60;95.10;;;;;;4986090;28;20057;-35
2021/04/20 01:55:26;;;;;;;31.83;23.40;;;9.60;95.10;;;;;;4997115;28;20096;-39
2021/04/20 01:57:54;;;;;;;33.05;24.17;;;9.60;95.10;;;;;;4986454;28;20746;-37
2021/04/20 02:00:21;;;;;;;33.80;25.13;;;9.60;95.10;;;;;;4995408;28;20388;-38
2021/04/20 02:02:47;;;;;;;33.33;23.88;;;9.60;95.20;;;;;;4986567;28;20474;-38
2021/04/20 02:05:13;;;;;;;34.35;23.80;;;9.60;95.20;;;;;;4993751;28;20026;-37
2021/04/20 02:07:39;;;;;;;33.10;24.58;;;9.60;95.20;;;;;;4989868;28;20455;-39
2021/04/20 02:10:09;;;;;;;34.63;24.90;;;9.50;95.20;;;;;;4990285;28;20037;-39
2021/04/20 02:12:36;;;;;;;32.50;23.50;;;9.50;95.30;;;;;;4991322;28;20137;-38
2021/04/20 02:15:06;;;;;;;30.42;22.58;;;9.40;95.30;;;;;;4989279;28;20030;-36
2021/04/20 02:17:32;;;;;;;31.50;23.30;;;9.40;95.40;;;;;;4992710;28;20137;-37
2021/04/20 02:20:04;;;;;;;30.67;21.77;;;9.30;95.50;;;;;;4987124;28;20077;-35
2021/04/20 02:22:34;;;;;;;30.23;22.30;;;9.20;95.80;;;;;;4994910;28;20042;-38
2021/04/20 02:25:03;;;;;;;30.27;21.77;;;9.20;95.50;;;;;;4986093;28;20105;-38
2021/04/20 02:27:28;;;;;;;31.92;22.23;;;9.10;95.60;;;;;;4996120;28;20106;-37
2021/04/20 02:29:57;;;;;;;30.02;21.55;;;9.00;95.60;;;;;;4986527;28;20075;-37
2021/04/20 02:32:22;;;;;;;30.02;21.83;;;9.00;95.70;;;;;;4995576;28;20110;-35
2021/04/20 02:34:48;;;;;;;31.70;23.02;;;8.90;96.00;;;;;;4984910;28;20113;-38
2021/04/20 02:37:17;;;;;;;28.40;21.02;;;8.90;95.80;;;;;;4997149;28;20030;-39
2021/04/20 02:39:43;;;;;;;31.90;22.00;;;8.80;95.80;;;;;;4984543;28;20026;-36
2021/04/20 02:42:09;;;;;;;34.25;23.73;;;8.80;95.90;;;;;;4996961;28;20049;-38
2021/04/20 02:44:34;;;;;;;31.92;23.38;;;8.70;95.90;;;;;;4985209;28;20117;-38
2021/04/20 02:47:01;;;;;;;33.78;24.50;;;8.70;95.90;;;;;;4995757;28;20037;-37
2021/04/20 02:49:26;;;;;;;31.77;22.80;;;8.70;96.00;;;;;;4985275;28;20126;-38
2021/04/20 02:51:52;;;;;;;32.28;23.23;;;8.70;96.00;;;;;;4993839;28;20084;-34
2021/04/20 02:54:18;;;;;;;32.10;23.10;;;8.60;96.10;;;;;;4987126;28;20034;-38
2021/04/20 02:56:44;;;;;;;30.45;21.55;;;8.60;96.10;;;;;;4996410;28;20092;-36
2021/04/20 02:59:11;;;;;;;33.20;24.38;;;8.60;96.20;;;;;;4990014;28;20049;-36
2021/04/20 03:01:40;;;;;;;33.53;23.27;;;8.50;96.20;;;;;;4988126;28;20093;-38
2021/04/20 03:04:06;;;;;;;33.50;23.85;;;8.50;96.20;;;;;;4992416;28;20049;-35
2021/04/20 03:06:32;;;;;;;30.98;22.52;;;8.50;96.30;;;;;;4985800;28;20027;-37
2021/04/20 03:08:58;;;;;;;33.40;23.58;;;8.40;96.30;;;;;;4994473;28;20034;-37
2021/04/20 03:11:29;;;;;;;32.47;22.85;;;8.40;96.30;;;;;;4988596;28;20101;-39
2021/04/20 03:13:59;;;;;;;30.95;22.70;;;8.40;96.30;;;;;;4986254;28;20569;-37
2021/04/20 03:16:24;;;;;;;31.30;20.90;;;8.40;96.30;;;;;;4986100;28;20027;-37
2021/04/20 03:18:50;;;;;;;33.40;22.80;;;8.40;96.30;;;;;;4995426;28;20103;-38
2021/04/20 03:21:17;;;;;;;31.02;21.63;;;8.40;96.40;;;;;;4984364;28;20141;-36
2021/04/20 03:23:44;;;;;;;32.05;21.92;;;8.30;96.40;;;;;;4997157;28;20054;-38
2021/04/20 03:26:25;;;;;;;32.03;23.00;;;8.30;96.40;;;;;;4984441;28;20109;-37
2021/04/20 03:28:55;;;;;;;30.67;21.98;;;8.30;96.50;;;;;;4996203;28;20030;-38
2021/04/20 03:31:20;;;;;;;33.63;22.85;;;8.30;96.40;;;;;;4985015;28;20045;-38
2021/04/20 03:33:52;;;;;;;35.78;23.30;;;8.30;96.40;;;;;;4996749;28;20045;-36
2021/04/20 03:36:23;;;;;;;31.73;22.77;;;8.40;96.50;;;;;;4984208;28;20065;-37
2021/04/20 03:39:07;;;;;;;32.97;22.75;;;8.30;96.50;;;;;;4996394;28;20033;-37
2021/04/20 03:41:35;;;;;;;32.25;22.45;;;8.30;96.40;;;;;;4983949;28;20081;-37
2021/04/20 03:44:03;;;;;;;34.40;23.85;;;8.30;96.40;;;;;;4997700;28;20460;-38
2021/04/20 03:46:33;;;;;;;32.78;22.95;;;8.30;96.50;;;;;;4988466;28;20088;-37
2021/04/20 03:49:04;;;;;;;33.00;22.27;;;8.30;96.50;;;;;;4998158;28;20053;-37
2021/04/20 03:51:31;;;;;;;34.22;21.92;;;8.30;96.50;;;;;;4989212;28;20710;-38
2021/04/20 03:54:07;;;;;;;36.15;24.90;;;8.30;96.50;;;;;;4996964;28;20449;-39
2021/04/20 03:56:33;;;;;;;34.33;23.95;;;8.30;96.60;;;;;;4998136;28;20076;-37
2021/04/20 03:59:02;;;;;;;34.38;24.25;;;8.30;96.50;;;;;;4999763;28;20023;-37
2021/04/20 04:01:32;;;;;;;33.30;23.13;;;8.30;96.50;;;;;;5002996;28;20049;-38
2021/04/20 04:03:59;;;;;;;32.05;22.25;;;8.30;96.50;;;;;;5000656;28;20428;-37
2021/04/20 04:06:25;;;;;;;34.25;24.25;;;8.20;96.50;;;;;;5001543;28;20341;-38
2021/04/20 04:08:53;;;;;;;33.17;23.70;;;8.20;96.50;;;;;;5003238;28;20036;-38
2021/04/20 04:11:21;;;;;;;34.28;23.73;;;8.20;96.60;;;;;;4998797;28;20485;-37
2021/04/20 04:13:48;;;;;;;35.13;24.15;;;8.10;96.60;;;;;;5004778;28;20113;-35
2021/04/20 04:16:16;;;;;;;33.40;24.58;;;8.10;96.60;;;;;;4995513;28;20489;-36
2021/04/20 04:18:54;;;;;;;32.30;24.10;;;8.10;96.70;;;;;;5003770;28;20053;-43
2021/04/20 04:21:26;;;;;;;34.60;23.38;;;8.00;96.70;;;;;;4995333;28;20030;-38
2021/04/20 04:23:55;;;;;;;35.85;24.73;;;8.00;96.70;;;;;;5003362;28;20032;-37
2021/04/20 04:26:30;;;;;;;35.28;24.63;;;8.00;96.80;;;;;;4994622;28;20212;-37
2021/04/20 04:29:01;;;;;;;36.95;24.80;;;7.90;96.80;;;;;;5003975;28;20017;-38
2021/04/20 04:31:29;;;;;;;33.55;23.77;;;7.90;96.80;;;;;;4994544;28;20041;-37
2021/04/20 04:33:56;;;;;;;33.30;23.67;;;7.90;96.90;;;;;;5005312;28;20136;-34
2021/04/20 04:36:22;;;;;;;33.50;23.80;;;7.80;96.80;;;;;;4994045;28;20543;-37
2021/04/20 04:38:47;;;;;;;35.88;25.70;;;7.80;96.80;;;;;;5006038;28;20065;-37
2021/04/20 04:41:14;;;;;;;35.83;24.92;;;7.70;96.90;;;;;;4993215;28;20065;-37
2021/04/20 04:43:41;;;;;;;33.00;23.02;;;7.70;96.90;;;;;;5006476;28;20104;-38
2021/04/20 04:46:07;;;;;;;34.75;23.75;;;7.70;96.90;;;;;;4993081;28;20049;-38
2021/04/20 04:48:35;;;;;;;33.90;24.58;;;7.70;96.90;;;;;;5006624;28;20038;-37
2021/04/20 04:51:01;;;;;;;35.40;24.88;;;7.70;96.90;;;;;;4996191;28;20088;-40
2021/04/20 04:53:28;;;;;;;33.55;23.40;;;7.70;96.90;;;;;;5003640;28;20104;-35
2021/04/20 04:55:57;;;;;;;36.63;24.17;;;7.60;96.90;;;;;;4997801;28;20143;-39
2021/04/20 04:58:27;;;;;;;36.63;26.63;;;7.60;96.90;;;;;;5005520;28;20065;-36
2021/04/20 05:00:57;;;;;;;37.55;24.08;;;7.60;96.90;;;;;;4998128;28;20027;-35
2021/04/20 05:03:23;;;;;;;39.42;25.73;;;7.60;96.90;;;;;;5000556;28;20037;-38
2021/04/20 05:05:55;;;;;;;37.50;24.90;;;7.50;97.00;;;;;;5001150;28;20018;-36
2021/04/20 05:08:23;;;;;;;35.78;24.45;;;7.50;97.00;;;;;;4999981;28;20026;-38
2021/04/20 05:10:50;;;;;;;37.13;25.85;;;7.50;97.00;;;;;;5003536;28;20013;-39
2021/04/20 05:13:17;;;;;;;34.97;24.20;;;7.60;97.00;;;;;;4997832;28;20021;-38
2021/04/20 05:15:42;;;;;;;37.58;24.75;;;7.60;97.00;;;;;;5005137;28;20068;-38
2021/04/20 05:18:12;;;;;;;35.05;25.20;;;7.60;97.00;;;;;;4995848;28;20564;-39
2021/04/20 05:20:44;;;;;;;38.28;24.02;;;7.50;97.00;;;;;;5005126;28;20030;-36
2021/04/20 05:23:13;;;;;;;39.67;26.55;;;7.50;97.00;;;;;;4995203;28;20101;-33
2021/04/20 05:25:39;;;;;;;35.03;24.67;;;7.60;97.10;;;;;;5004976;28;20109;-38
2021/04/20 05:28:06;;;;;;;34.42;24.95;;;7.60;97.00;;;;;;4994169;28;20125;-37
2021/04/20 05:30:31;;;;;;;37.58;26.45;;;7.60;97.10;;;;;;5006294;28;20044;-38
2021/04/20 05:33:03;;;;;;;36.95;25.55;;;7.60;97.10;;;;;;4993497;28;20506;-37
2021/04/20 05:35:30;;;;;;;35.13;23.77;;;7.70;97.00;;;;;;5005581;28;20105;-34
2021/04/20 05:37:55;;;;;;;36.95;25.85;;;7.80;97.00;;;;;;4993342;28;20042;-35
2021/04/20 05:40:23;;;;;;;33.95;23.52;;;7.80;97.00;;;;;;5006180;28;20022;-38
2021/04/20 05:42:53;;;;;;;34.83;24.20;;;7.90;97.00;;;;;;4998417;28;20156;-35
2021/04/20 05:45:19;;;;;;;38.42;25.67;;;7.90;97.00;;;;;;4988436;28;20338;-37
2021/04/20 05:47:47;;;;;;;34.92;23.73;;;8.00;97.00;;;;;;4987991;28;20031;-37
2021/04/20 05:50:22;;;;;;;35.08;24.73;;;8.00;96.90;;;;;;5002841;28;20030;-37
2021/04/20 05:52:49;;;;;;;35.80;24.27;;;8.00;96.90;;;;;;4995084;28;20030;-39
2021/04/20 05:55:15;;;;;;;34.38;24.58;;;8.10;97.00;;;;;;4996110;28;20741;-38
2021/04/20 05:57:47;;;;;;;35.65;24.10;;;8.10;96.90;;;;;;4994673;28;20018;-38
2021/04/20 06:00:14;;;;;;;35.03;24.05;;;8.10;96.90;;;;;;4999424;28;20033;-38
2021/04/20 06:02:41;;;;;;;34.92;23.90;;;8.20;96.90;;;;;;4999880;28;20058;-42
2021/04/20 06:05:12;;;;;;;41.70;27.67;;;8.20;96.90;;;;;;4996742;28;20046;-34
2021/04/20 06:07:42;;;;;;;44.58;30.50;;;8.30;97.00;;;;;;4999075;28;20489;-42
2021/04/20 06:10:12;;;;;;;50.70;34.22;;;8.40;97.00;;;;;;4995202;28;20425;-38
2021/04/20 06:12:38;;;;;;;50.40;34.08;;;8.50;97.10;;;;;;5003954;28;20070;-38
2021/04/20 06:15:06;;;;;;;51.30;33.65;;;8.60;97.20;;;;;;4989539;28;20034;-35
2021/04/20 06:17:37;;;;;;;49.33;33.60;;;8.70;97.10;;;;;;4986185;28;20030;-37
2021/04/20 06:20:05;;;;;;;50.45;33.42;;;8.90;97.10;;;;;;4999902;28;20535;-37
2021/04/20 06:22:30;;;;;;;47.95;33.38;;;9.00;97.10;;;;;;5004039;28;20022;-36
2021/04/20 06:24:57;;;;;;;50.17;33.80;;;9.00;97.10;;;;;;4995156;28;20414;-35
2021/04/20 06:27:22;;;;;;;46.78;33.00;;;9.10;97.00;;;;;;4995375;28;20490;-37
2021/04/20 06:29:48;;;;;;;48.33;33.97;;;9.20;97.00;;;;;;5002588;28;20080;-38
2021/04/20 06:32:14;;;;;;;45.53;30.90;;;9.30;97.00;;;;;;5004883;28;20057;-38
2021/04/20 06:34:42;;;;;;;43.42;29.88;;;9.30;96.90;;;;;;4992649;28;20451;-36
2021/04/20 06:37:09;;;;;;;41.30;28.63;;;9.40;96.90;;;;;;4992302;28;20026;-38
2021/04/20 06:39:36;;;;;;;42.45;29.27;;;9.50;96.90;;;;;;4998844;28;20385;-35
2021/04/20 06:42:03;;;;;;;39.08;27.88;;;9.60;96.90;;;;;;4986411;28;20045;-35
2021/04/20 06:44:39;;;;;;;48.15;32.90;;;9.60;96.80;;;;;;4994969;28;20091;-35
2021/04/20 06:47:14;;;;;;;53.08;34.65;;;9.70;96.90;;;;;;4986859;28;20037;-38
2021/04/20 06:49:44;;;;;;;48.60;33.95;;;9.80;96.90;;;;;;4988718;28;20042;-36
2021/04/20 06:52:43;;;;;;;49.60;34.30;;;9.90;96.90;;;;;;5000533;28;20026;-37
2021/04/20 06:55:14;;;;;;;48.28;34.55;;;9.90;96.80;;;;;;4966123;28;20112;-36
2021/04/20 06:57:48;;;;;;;45.55;31.67;;;10.00;96.80;;;;;;4996410;28;20034;-37
2021/04/20 07:00:18;;;;;;;48.28;33.97;;;10.10;96.70;;;;;;4998842;28;20049;-37
2021/04/20 07:03:08;;;;;;;50.17;35.33;;;10.10;96.70;;;;;;4998277;28;20140;-38
2021/04/20 07:05:46;;;;;;;46.72;32.78;;;10.20;96.70;;;;;;4997280;28;20076;-35
2021/04/20 07:08:24;;;;;;;46.92;31.55;;;10.30;96.60;;;;;;4992426;28;20100;-37
2021/04/20 07:10:54;;;;;;;44.42;31.92;;;10.30;96.60;;;;;;4995557;28;20052;-36
2021/04/20 07:13:22;;;;;;;44.88;31.73;;;10.40;96.60;;;;;;5001240;28;20528;-38
2021/04/20 07:16:04;;;;;;;49.55;34.13;;;10.40;96.50;;;;;;4999480;28;20100;-37
2021/04/20 07:18:56;;;;;;;49.25;35.83;;;10.50;96.60;;;;;;5004553;28;20050;-38
2021/04/20 07:21:45;;;;;;;49.55;34.35;;;10.50;96.50;;;;;;4995372;28;20450;-37
2021/04/20 07:24:22;;;;;;;46.05;33.10;;;10.60;96.50;;;;;;5008772;28;20021;-36
2021/04/20 07:27:06;;;;;;;44.67;31.02;;;10.60;96.30;;;;;;4994952;28;20075;-37
2021/04/20 07:29:38;;;;;;;51.97;34.65;;;10.70;96.30;;;;;;4988619;28;20573;-34
2021/04/20 07:32:18;;;;;;;46.03;32.08;;;10.80;96.30;;;;;;5002653;28;20105;-38
2021/04/20 07:35:05;;;;;;;42.08;29.92;;;10.80;96.20;;;;;;5008067;28;20111;-35
2021/04/20 07:37:48;;;;;;;41.22;30.20;;;10.90;96.20;;;;;;4999618;28;20216;-36
2021/04/20 07:40:25;;;;;;;43.00;30.48;;;10.90;96.10;;;;;;4990308;28;20045;-37
2021/04/20 07:43:13;;;;;;;39.08;28.13;;;10.90;96.10;;;;;;4998702;28;20169;-36
2021/04/20 07:46:19;;;;;;;43.75;29.20;;;11.00;96.10;;;;;;5001908;28;20113;-35
2021/04/20 07:49:00;;;;;;;38.30;26.00;;;11.10;96.10;;;;;;5007406;28;20049;-39
2021/04/20 07:51:42;;;;;;;37.75;27.75;;;11.10;96.00;;;;;;5005155;28;20053;-39
2021/04/20 07:54:20;;;;;;;39.88;27.75;;;11.20;95.90;;;;;;5003054;28;20128;-36
2021/04/20 07:56:58;;;;;;;37.38;26.85;;;11.30;95.90;;;;;;5006321;28;20025;-39
2021/04/20 07:59:49;;;;;;;35.33;25.08;;;11.30;95.90;;;;;;4989200;28;20030;-38
2021/04/20 08:02:32;;;;;;;32.75;24.05;;;11.40;95.80;;;;;;4996321;28;20049;-39
2021/04/20 08:05:17;;;;;;;35.35;25.58;;;11.50;95.80;;;;;;4988890;28;20041;-38
2021/04/20 08:07:49;;;;;;;31.17;22.83;;;11.60;95.70;;;;;;4999112;28;20584;-36
2021/04/20 08:10:15;;;;;;;34.65;24.35;;;11.60;95.60;;;;;;5003190;28;20030;-37
2021/04/20 08:13:06;;;;;;;34.78;24.75;;;11.70;95.50;;;;;;4997028;28;20466;-37
2021/04/20 08:15:39;;;;;;;35.67;23.88;;;11.80;95.50;;;;;;4987681;28;20069;-38
2021/04/20 08:18:10;;;;;;;30.35;22.73;;;11.80;95.40;;;;;;4998783;28;20030;-35
2021/04/20 08:20:37;;;;;;;30.85;22.27;;;11.90;95.30;;;;;;4987212;28;20615;-36
2021/04/20 08:23:05;;;;;;;30.42;21.98;;;12.00;95.30;;;;;;4997069;28;20212;-37
2021/04/20 08:25:37;;;;;;;31.17;22.13;;;12.00;95.20;;;;;;4989529;28;20379;-37
2021/04/20 08:28:14;;;;;;;29.57;21.00;;;12.10;95.10;;;;;;4995663;28;20485;-37
2021/04/20 08:31:05;;;;;;;26.48;19.77;;;12.20;95.00;;;;;;4989106;28;20019;-37
2021/04/20 08:33:37;;;;;;;24.85;18.50;;;12.20;94.80;;;;;;4997758;28;20484;-38
2021/04/20 08:36:08;;;;;;;25.60;18.48;;;12.30;94.80;;;;;;4988246;28;20034;-37
2021/04/20 08:38:58;;;;;;;26.15;18.42;;;12.40;94.60;;;;;;4999930;28;20133;-35
2021/04/20 08:41:34;;;;;;;32.30;20.88;;;12.40;94.50;;;;;;4987600;28;20100;-38
2021/04/20 08:44:12;;;;;;;28.05;20.33;;;12.50;94.10;;;;;;4999618;28;20512;-38
2021/04/20 08:46:53;;;;;;;24.05;19.10;;;12.60;94.10;;;;;;4987884;28;20031;-36
2021/04/20 08:49:37;;;;;;;24.85;17.88;;;12.70;94.00;;;;;;5000056;28;20030;-35
2021/04/20 08:52:32;;;;;;;23.73;16.85;;;12.80;93.90;;;;;;4987176;28;20049;-38
2021/04/20 08:55:10;;;;;;;21.63;16.85;;;12.80;93.80;;;;;;4995517;28;20088;-38
2021/04/20 08:57:41;;;;;;;23.13;17.80;;;13.00;93.50;;;;;;4993611;28;20022;-37
2021/04/20 09:00:28;;;;;;;25.23;18.58;;;13.10;93.30;;;;;;4998700;28;20030;-44
2021/04/20 09:03:18;;;;;;;22.60;16.88;;;13.20;92.90;;;;;;4988742;28;20490;-35
2021/04/20 09:05:58;;;;;;;21.58;16.67;;;13.20;92.80;;;;;;4997472;28;20030;-37
2021/04/20 09:08:48;;;;;;;21.20;16.55;;;13.40;92.80;;;;;;4988600;28;20030;-39
2021/04/20 09:11:27;;;;;;;23.50;17.50;;;13.40;92.70;;;;;;4998928;28;20033;-39
2021/04/20 09:14:09;;;;;;;19.33;15.40;;;13.50;92.60;;;;;;5003759;28;20026;-39
2021/04/20 09:16:45;;;;;;;22.80;18.00;;;13.50;92.50;;;;;;5000620;28;20057;-38
2021/04/20 09:19:31;;;;;;;22.60;16.45;;;13.60;92.30;;;;;;5002498;28;20042;-34
2021/04/20 09:22:23;;;;;;;23.00;18.45;;;13.70;92.30;;;;;;5001442;28;20121;-36
2021/04/20 09:25:11;;;;;;;22.10;16.30;;;13.80;92.10;;;;;;4999207;28;20018;-39
2021/04/20 09:27:48;;;;;;;22.20;16.90;;;13.80;92.10;;;;;;5003946;28;20026;-37
2021/04/20 09:30:20;;;;;;;19.83;15.98;;;13.90;92.00;;;;;;4996845;28;20038;-39
2021/04/20 09:32:51;;;;;;;18.33;14.52;;;14.00;91.90;;;;;;5004679;28;20021;-39
2021/04/20 09:35:17;;;;;;;21.65;16.30;;;14.00;91.80;;;;;;4995014;28;20034;-40
2021/04/20 09:37:44;;;;;;;21.73;17.20;;;14.10;91.50;;;;;;4989939;28;20036;-39
2021/04/20 09:40:19;;;;;;;17.52;14.40;;;14.20;91.40;;;;;;4992080;28;20026;-38
2021/04/20 09:43:26;;;;;;;19.50;15.20;;;14.30;91.20;;;;;;4990276;28;20609;-38
2021/04/20 09:46:08;;;;;;;19.52;15.25;;;14.40;91.20;;;;;;4962887;28;20103;-39
2021/04/20 09:48:58;;;;;;;18.23;14.82;;;14.50;91.10;;;;;;4985807;28;20109;-36
2021/04/20 09:51:32;;;;;;;19.60;15.68;;;14.60;91.00;;;;;;4998600;28;20037;-38
2021/04/20 09:54:15;;;;;;;17.70;14.40;;;14.60;90.90;;;;;;4993696;28;20026;-38
2021/04/20 09:56:42;;;;;;;;;;;14.70;90.80;;;;;;4994493;28;20098;-37
2021/04/20 09:59:16;;;;;;;24.58;17.40;;;14.70;90.80;;;;;;5002616;28;20385;-38
2021/04/20 10:01:56;;;;;;;18.00;15.27;;;14.80;90.50;;;;;;4992332;28;20081;-36
2021/04/20 10:04:40;;;;;;;16.60;12.85;;;14.80;90.20;;;;;;5004994;28;20029;-36
2021/04/20 10:07:17;;;;;;;12.85;10.73;;;14.90;90.00;;;;;;4992585;28;20076;-39
2021/04/20 10:10:20;;;;;;;13.50;11.77;;;15.00;89.80;;;;;;5006193;28;20033;-38
2021/04/20 10:13:25;;;;;;;16.35;13.30;;;15.10;89.00;;;;;;5002657;28;20041;-42
2021/04/20 10:16:21;;;;;;;14.45;12.70;;;15.20;87.90;;;;;;4996515;28;20030;-39
2021/04/20 10:19:11;;;;;;;10.98;9.57;;;15.30;86.80;;;;;;4997259;28;20090;-35
2021/04/20 10:21:55;;;;;;;10.80;9.70;;;15.30;86.80;;;;;;4998615;28;20112;-37
2021/04/20 10:24:23;;;;;;;11.77;10.07;;;15.40;86.00;;;;;;4988687;28;20562;-37
2021/04/20 10:27:20;;;;;;;10.85;9.48;;;15.50;85.70;;;;;;4992632;28;20080;-38
2021/04/20 10:30:00;;;;;;;9.95;8.07;;;15.50;85.40;;;;;;4985827;28;20062;-38
2021/04/20 10:32:31;;;;;;;9.57;8.27;;;15.60;83.30;;;;;;4995546;28;20030;-38
2021/04/20 10:34:58;;;;;;;11.35;9.57;;;15.60;83.30;;;;;;4986606;28;20573;-40
2021/04/20 10:37:37;;;;;;;13.35;9.57;;;15.70;83.00;;;;;;4993688;28;20022;-41
2021/04/20 10:40:11;;;;;;;10.73;9.63;;;15.80;82.80;;;;;;4987891;28;20030;-39
2021/04/20 10:42:38;;;;;;;10.32;8.90;;;15.80;81.70;;;;;;4994059;28;20030;-39
2021/04/20 10:45:06;;;;;;;10.68;8.60;;;16.00;81.80;;;;;;4987976;28;20355;-38
2021/04/20 10:47:37;;;;;;;9.48;8.25;;;16.10;81.70;;;;;;5002557;28;20105;-37
2021/04/20 10:50:04;;;;;;;9.50;8.50;;;16.10;81.70;;;;;;4989673;28;20034;-37
2021/04/20 10:52:35;;;;;;;10.05;8.40;;;16.10;81.60;;;;;;4990142;28;20173;-37
2021/04/20 10:55:08;;;;;;;8.13;7.22;;;16.20;81.10;;;;;;4995009;28;20633;-37
2021/04/20 10:57:37;;;;;;;11.25;9.00;;;16.20;80.90;;;;;;4996358;28;20030;-38
2021/04/20 11:00:04;;;;;;;9.52;8.52;;;16.30;80.60;;;;;;5001836;28;20042;-38
2021/04/20 11:02:36;;;;;;;12.30;9.63;;;16.30;80.30;;;;;;5004980;28;20081;-38
2021/04/20 11:05:02;;;;;;;10.27;8.93;;;16.40;79.90;;;;;;4989064;28;20018;-38
2021/04/20 11:07:33;;;;;;;11.98;9.00;;;16.50;79.70;;;;;;4990308;28;20541;-38
2021/04/20 11:10:03;;;;;;;9.60;8.07;;;16.60;79.00;;;;;;4998547;28;20051;-38
2021/04/20 11:12:30;;;;;;;7.72;6.97;;;16.70;78.80;;;;;;5007701;28;20540;-39
2021/04/20 11:14:56;;;;;;;8.10;7.28;;;16.70;78.70;;;;;;4998531;28;20104;-38
2021/04/20 11:17:44;;;;;;;7.30;6.60;;;16.80;78.20;;;;;;5007690;28;20018;-38
2021/04/20 11:20:28;;;;;;;9.43;7.70;;;16.90;76.10;;;;;;4999221;28;20031;-38
2021/04/20 11:23:06;;;;;;;7.35;6.55;;;17.00;75.20;;;;;;4990148;28;20045;-40
2021/04/20 11:25:49;;;;;;;8.70;7.43;;;17.20;74.80;;;;;;4997567;28;20048;-38
2021/04/20 11:28:28;;;;;;;9.27;7.60;;;17.20;73.90;;;;;;5006499;28;20030;-37
2021/04/20 11:31:09;;;;;;;8.73;7.38;;;17.30;73.90;;;;;;5005846;28;20486;-36
2021/04/20 11:33:38;;;;;;;10.23;6.80;;;17.30;73.70;;;;;;5004403;28;20033;-35
2021/04/20 11:36:12;;;;;;;8.73;6.50;;;17.40;72.50;;;;;;5001861;28;20069;-36
2021/04/20 11:38:47;;;;;;;8.93;6.53;;;17.40;72.70;;;;;;5004130;28;20053;-38
2021/04/20 11:41:15;;;;;;;8.00;7.18;;;17.40;72.50;;;;;;4990200;28;20045;-37
2021/04/20 11:43:44;;;;;;;8.85;7.60;;;17.30;72.50;;;;;;4992707;28;20022;-36
2021/04/20 11:46:17;;;;;;;7.82;7.03;;;17.30;73.20;;;;;;4997186;28;20014;-38
2021/04/20 11:48:46;;;;;;;7.85;7.03;;;17.40;72.50;;;;;;5006400;28;20047;-38
2021/04/20 11:51:12;;;;;;;7.35;6.65;;;17.40;71.70;;;;;;4997254;28;20044;-39
2021/04/20 11:53:40;;;;;;;8.48;7.57;;;17.50;72.60;;;;;;5006640;28;20025;-35
2021/04/20 11:56:07;;;;;;;6.93;6.22;;;17.60;72.30;;;;;;4996823;28;20038;-38
2021/04/20 11:58:45;;;;;;;7.97;7.10;;;17.60;72.60;;;;;;4988361;28;20081;-36
2021/04/20 12:01:21;;;;;;;7.75;6.88;;;17.70;72.60;;;;;;4996057;28;20484;-40
2021/04/20 12:04:01;;;;;;;10.40;9.30;;;17.70;72.50;;;;;;5007722;28;20522;-39
2021/04/20 12:06:39;;;;;;;10.60;9.20;;;17.80;71.10;;;;;;4996516;28;20030;-37
2021/04/20 12:09:06;;;;;;;9.07;8.05;;;17.90;71.20;;;;;;4991071;28;20026;-36
2021/04/20 12:11:33;;;;;;;8.48;7.63;;;17.90;70.60;;;;;;4999398;28;20022;-35
2021/04/20 12:14:03;;;;;;;10.00;8.23;;;17.90;70.30;;;;;;4988180;28;20058;-35
2021/04/20 12:16:33;;;;;;;8.57;7.70;;;17.80;70.00;;;;;;4999286;28;20014;-37
2021/04/20 12:18:59;;;;;;;9.43;8.10;;;17.80;70.80;;;;;;4988293;28;20041;-39
2021/04/20 12:21:28;;;;;;;10.57;9.48;;;17.90;70.00;;;;;;4999374;28;20038;-39
2021/04/20 12:23:58;;;;;;;10.20;8.85;;;17.90;69.70;;;;;;4987418;28;20104;-37
2021/04/20 12:26:27;;;;;;;9.88;8.23;;;17.90;69.50;;;;;;4999701;28;20061;-35
2021/04/20 12:28:55;;;;;;;9.43;7.90;;;17.90;68.80;;;;;;4986980;28;20133;-39
2021/04/20 12:31:37;;;;;;;8.88;7.43;;;18.00;69.40;;;;;;4997752;28;20642;-39
2021/04/20 12:34:04;;;;;;;9.23;6.68;;;18.20;69.90;;;;;;4987966;28;20382;-39
2021/04/20 12:36:39;;;;;;;8.82;7.93;;;18.30;70.00;;;;;;4996414;28;20113;-39
2021/04/20 12:39:08;;;;;;;8.30;7.50;;;18.30;69.00;;;;;;4988664;28;20101;-39
2021/04/20 12:41:40;;;;;;;7.28;6.57;;;18.40;69.30;;;;;;5001002;28;20041;-38
2021/04/20 12:44:13;;;;;;;10.53;8.57;;;18.50;69.80;;;;;;5004383;28;20030;-39
2021/04/20 12:46:41;;;;;;;9.25;7.88;;;18.50;69.80;;;;;;4995762;28;20026;-38
2021/04/20 12:49:08;;;;;;;8.77;7.88;;;18.60;68.60;;;;;;5002174;28;20781;-38
2021/04/20 12:51:41;;;;;;;13.55;11.07;;;18.60;68.90;;;;;;4998453;28;20022;-39
2021/04/20 12:54:11;;;;;;;11.70;10.13;;;18.70;68.70;;;;;;5000586;28;20022;-39
2021/04/20 12:56:39;;;;;;;12.15;10.68;;;18.70;68.80;;;;;;5004032;28;20048;-39
2021/04/20 12:59:08;;;;;;;13.35;11.30;;;18.80;68.90;;;;;;5005152;28;20057;-39